TimeEST,TemperatureF,Dew PointF,Humidity,Sea Level PressureIn,VisibilityMPH,Wind Direction,Wind SpeedMPH,Gust SpeedMPH,PrecipitationIn,Events,Conditions,WindDirDegrees,DateUTC
12:15 AM,41.0,37.9,89,30.15,7.0,NW,10.4,-,N/A,,Light Drizzle,320,2013-11-12 05:15:00
12:35 AM,40.3,37.4,89,30.16,7.0,NNW,10.4,18.4,N/A,Rain,Light Rain,330,2013-11-12 05:35:00
12:55 AM,39.6,36.9,90,30.17,7.0,North,12.7,18.4,N/A,Rain,Light Rain,350,2013-11-12 05:55:00
1:15 AM,37.9,35.2,90,30.18,10.0,North,16.1,20.7,N/A,Rain,Light Rain,360,2013-11-12 06:15:00
1:35 AM,36.1,33.4,90,30.19,10.0,North,11.5,19.6,N/A,Rain,Light Rain,350,2013-11-12 06:35:00
1:55 AM,34.3,32.2,92,30.21,10.0,North,10.4,18.4,N/A,Rain,Light Rain,360,2013-11-12 06:55:00
2:15 AM,33.3,31.8,94,30.22,7.0,North,10.4,16.1,N/A,Snow,Light Snow,350,2013-11-12 07:15:00
2:35 AM,32.5,31.1,94,30.23,4.0,North,11.5,18.4,N/A,Snow,Light Snow,350,2013-11-12 07:35:00
2:55 AM,32.2,31.1,96,30.24,2.0,North,12.7,-,N/A,Snow,Light Snow,350,2013-11-12 07:55:00
3:15 AM,32.0,30.7,95,30.25,2.5,North,12.7,19.6,N/A,Snow,Light Snow,360,2013-11-12 08:15:00
3:35 AM,32.0,30.6,94,30.25,1.8,North,10.4,-,N/A,Snow,Light Snow,10,2013-11-12 08:35:00
3:55 AM,32.0,30.4,94,30.26,2.5,NNW,11.5,-,N/A,Snow,Light Snow,340,2013-11-12 08:55:00
4:15 AM,31.6,29.8,93,30.27,3.0,NNW,5.8,-,N/A,Snow,Light Snow,340,2013-11-12 09:15:00
4:35 AM,31.1,29.1,92,30.29,2.5,NNW,9.2,-,N/A,Snow,Light Snow,330,2013-11-12 09:35:00
4:55 AM,30.7,28.4,91,30.31,4.0,North,12.7,-,N/A,Snow,Light Snow,350,2013-11-12 09:55:00
5:15 AM,30.2,28.0,92,30.31,3.0,NNW,10.4,16.1,N/A,Snow,Light Snow,340,2013-11-12 10:15:00
5:35 AM,30.0,27.5,90,30.33,7.0,North,11.5,17.3,N/A,Snow,Light Snow,350,2013-11-12 10:35:00
5:55 AM,30.0,26.2,86,30.34,10.0,North,8.1,-,N/A,,Overcast,350,2013-11-12 10:55:00
6:15 AM,29.8,26.1,86,30.35,10.0,North,8.1,-,N/A,,Overcast,350,2013-11-12 11:15:00
6:35 AM,29.7,25.7,85,30.36,10.0,NNW,5.8,-,N/A,,Overcast,340,2013-11-12 11:35:00
6:55 AM,29.3,25.5,86,30.37,10.0,NNW,8.1,-,N/A,,Scattered Clouds,340,2013-11-12 11:55:00
7:15 AM,29.1,25.3,86,30.38,10.0,NNW,6.9,-,N/A,,Scattered Clouds,340,2013-11-12 12:15:00
7:35 AM,28.9,24.8,84,30.39,10.0,NNW,5.8,-,N/A,,Scattered Clouds,330,2013-11-12 12:35:00
7:55 AM,28.4,24.3,84,30.41,10.0,NNW,6.9,-,N/A,,Clear,330,2013-11-12 12:55:00
8:15 AM,28.0,23.7,84,30.41,10.0,NNW,6.9,-,N/A,,Clear,340,2013-11-12 13:15:00
8:35 AM,28.4,23.5,82,30.43,10.0,North,6.9,-,N/A,,Clear,350,2013-11-12 13:35:00
8:55 AM,28.0,22.6,80,30.43,10.0,NNW,9.2,-,N/A,,Clear,330,2013-11-12 13:55:00
9:15 AM,28.9,22.6,77,30.44,10.0,NNW,11.5,-,N/A,,Clear,330,2013-11-12 14:15:00
9:35 AM,29.8,22.8,75,30.44,10.0,NNW,10.4,-,N/A,,Clear,340,2013-11-12 14:35:00
9:55 AM,30.0,23.0,75,30.44,10.0,NNW,6.9,-,N/A,,Clear,340,2013-11-12 14:55:00
10:15 AM,30.6,22.8,73,30.45,10.0,North,10.4,-,N/A,,Clear,350,2013-11-12 15:15:00
10:35 AM,31.3,23.0,71,30.45,10.0,NNW,8.1,16.1,N/A,,Scattered Clouds,340,2013-11-12 15:35:00
10:55 AM,31.5,23.4,72,30.45,10.0,North,12.7,-,N/A,,Scattered Clouds,350,2013-11-12 15:55:00
11:15 AM,32.0,23.2,70,30.45,10.0,NNW,6.9,-,N/A,,Scattered Clouds,330,2013-11-12 16:15:00
11:35 AM,31.8,23.2,70,30.46,10.0,North,12.7,18.4,N/A,,Scattered Clouds,350,2013-11-12 16:35:00
11:55 AM,32.2,22.8,68,30.45,10.0,North,12.7,17.3,N/A,,Scattered Clouds,360,2013-11-12 16:55:00
12:15 PM,32.7,23.4,68,30.44,10.0,North,6.9,-,N/A,,Scattered Clouds,350,2013-11-12 17:15:00
12:35 PM,33.6,23.9,68,30.44,10.0,North,11.5,16.1,N/A,,Mostly Cloudy,350,2013-11-12 17:35:00
12:55 PM,32.7,22.3,65,30.44,10.0,NNW,12.7,-,N/A,,Mostly Cloudy,340,2013-11-12 17:55:00
1:15 PM,32.0,23.4,70,30.45,10.0,North,10.4,20.7,N/A,,Overcast,350,2013-11-12 18:15:00
1:35 PM,32.4,23.0,68,30.45,10.0,NW,11.5,17.3,N/A,,Overcast,320,2013-11-12 18:35:00
1:55 PM,32.4,23.2,69,30.46,10.0,NW,9.2,-,N/A,,Overcast,320,2013-11-12 18:55:00
2:15 PM,32.7,23.5,69,30.47,10.0,NNW,8.1,-,N/A,,Overcast,340,2013-11-12 19:15:00
2:35 PM,32.2,22.1,66,30.47,10.0,NW,10.4,-,N/A,,Overcast,310,2013-11-12 19:35:00
2:55 PM,32.0,23.2,70,30.48,10.0,NNW,12.7,17.3,N/A,,Overcast,340,2013-11-12 19:55:00
3:15 PM,32.5,23.5,69,30.48,10.0,NW,8.1,-,N/A,,Scattered Clouds,320,2013-11-12 20:15:00
3:35 PM,32.9,22.6,66,30.48,10.0,NNW,5.8,-,N/A,,Scattered Clouds,330,2013-11-12 20:35:00
3:55 PM,32.0,22.6,68,30.49,10.0,NW,8.1,-,N/A,,Scattered Clouds,320,2013-11-12 20:55:00
4:15 PM,32.2,22.8,68,30.49,10.0,NNW,6.9,-,N/A,,Mostly Cloudy,330,2013-11-12 21:15:00
4:35 PM,32.2,22.5,67,30.50,10.0,NNW,4.6,-,N/A,,Overcast,330,2013-11-12 21:35:00
4:55 PM,32.0,22.5,68,30.50,10.0,NW,10.4,-,N/A,,Mostly Cloudy,320,2013-11-12 21:55:00
5:15 PM,32.0,22.3,67,30.51,10.0,NW,8.1,-,N/A,,Mostly Cloudy,320,2013-11-12 22:15:00
5:35 PM,31.1,21.9,69,30.50,10.0,NW,4.6,-,N/A,,Scattered Clouds,310,2013-11-12 22:35:00
5:55 PM,30.9,21.0,67,30.51,10.0,WNW,9.2,-,N/A,,Scattered Clouds,300,2013-11-12 22:55:00
6:15 PM,30.6,20.7,67,30.52,10.0,NW,6.9,-,N/A,,Clear,320,2013-11-12 23:15:00
6:35 PM,30.2,20.1,66,30.53,10.0,NW,8.1,-,N/A,,Clear,320,2013-11-12 23:35:00
6:55 PM,29.7,19.4,66,30.54,10.0,NNW,5.8,-,N/A,,Clear,330,2013-11-12 23:55:00
7:15 PM,30.0,20.1,67,30.54,10.0,NNW,3.5,-,N/A,,Mostly Cloudy,340,2013-11-13 00:15:00
7:35 PM,30.0,20.7,68,30.54,10.0,Calm,Calm,-,N/A,,Overcast,0,2013-11-13 00:35:00
7:55 PM,30.2,20.5,67,30.54,10.0,Calm,Calm,-,N/A,,Overcast,0,2013-11-13 00:55:00
8:15 PM,30.0,21.0,69,30.54,10.0,WNW,4.6,-,N/A,,Overcast,300,2013-11-13 01:15:00
8:35 PM,29.5,19.9,68,30.55,10.0,Calm,Calm,-,N/A,,Scattered Clouds,0,2013-11-13 01:35:00
8:55 PM,28.8,19.9,70,30.56,10.0,Calm,Calm,-,N/A,,Clear,0,2013-11-13 01:55:00
9:15 PM,27.0,20.3,76,30.57,10.0,West,3.5,-,N/A,,Clear,260,2013-11-13 02:15:00
9:35 PM,25.3,20.7,82,30.57,10.0,Calm,Calm,-,N/A,,Clear,0,2013-11-13 02:35:00
9:55 PM,25.0,20.1,82,30.57,10.0,Calm,Calm,-,N/A,,Clear,0,2013-11-13 02:55:00
10:15 PM,25.3,20.8,83,30.58,10.0,West,3.5,-,N/A,,Scattered Clouds,280,2013-11-13 03:15:00
10:35 PM,25.3,21.2,84,30.57,10.0,West,3.5,-,N/A,,Overcast,260,2013-11-13 03:35:00
10:55 PM,26.4,21.6,82,30.57,10.0,Calm,Calm,-,N/A,,Overcast,0,2013-11-13 03:55:00
11:15 PM,27.5,21.7,79,30.57,10.0,West,4.6,-,N/A,,Overcast,260,2013-11-13 04:15:00
11:35 PM,27.5,21.2,77,30.56,10.0,West,3.5,-,N/A,,Overcast,270,2013-11-13 04:35:00
11:55 PM,25.5,20.5,81,30.56,10.0,West,4.6,-,N/A,,Scattered Clouds,260,2013-11-13 04:55:00